createdAt,value
2022-10-28T00:01:45.887Z,41.60
2022-10-28T00:04:43.277Z,41.70
2022-10-28T00:07:35.679Z,43.10
2022-10-28T00:11:03.043Z,40.20
2022-10-28T00:13:40.921Z,44.70
2022-10-28T00:16:27.628Z,43.60
2022-10-28T00:20:26.550Z,46.00
2022-10-28T00:22:47.088Z,43.10
2022-10-28T00:25:33.247Z,42.20
2022-10-28T00:28:30.935Z,42.00
2022-10-28T00:31:54.211Z,42.20
2022-10-28T00:34:32.987Z,42.30
2022-10-28T00:37:14.519Z,43.30
2022-10-28T00:39:46.320Z,42.50
2022-10-28T00:42:49.469Z,41.90
2022-10-28T00:45:49.957Z,43.00
2022-10-28T00:48:45.132Z,40.10
2022-10-28T01:00:30.602Z,41.60
2022-10-28T01:04:56.903Z,41.60
2022-10-28T01:07:36.793Z,42.00
2022-10-28T01:10:41.898Z,40.10
2022-10-28T01:14:15.312Z,41.00
2022-10-28T01:18:17.284Z,38.70
2022-10-28T01:21:26.298Z,37.20
2022-10-28T01:24:26.391Z,38.00
2022-10-28T01:27:56.876Z,37.80
2022-10-28T01:31:42.209Z,38.60
2022-10-28T01:34:43.253Z,40.40
2022-10-28T01:38:09.725Z,38.10
2022-10-28T01:41:48.572Z,38.40
2022-10-28T01:45:34.375Z,39.90
2022-10-28T01:51:42.080Z,41.60
2022-10-28T01:57:51.534Z,37.60
2022-10-28T02:01:00.443Z,38.90
2022-10-28T02:03:57.313Z,43.00
2022-10-28T02:06:43.148Z,38.60
2022-10-28T02:10:41.097Z,41.10
2022-10-28T02:13:45.753Z,39.30
2022-10-28T02:20:45.560Z,41.20
2022-10-28T02:24:21.687Z,40.90
2022-10-28T02:27:40.392Z,40.40
2022-10-28T02:30:37.693Z,38.90
2022-10-28T02:33:43.321Z,37.80
2022-10-28T02:36:52.699Z,39.40
2022-10-28T02:39:53.756Z,44.00
2022-10-28T02:43:00.210Z,38.60
2022-10-28T02:45:57.745Z,39.30
2022-10-28T02:49:55.775Z,38.00
2022-10-28T02:52:47.336Z,36.60
2022-10-28T02:55:59.094Z,39.10
2022-10-28T02:58:43.285Z,36.60
2022-10-28T03:01:37.401Z,37.60
2022-10-28T03:05:00.234Z,33.60
2022-10-28T03:07:59.960Z,41.10
2022-10-28T03:10:59.716Z,40.70
2022-10-28T03:13:52.503Z,39.20
2022-10-28T03:16:38.498Z,35.90
2022-10-28T03:19:42.438Z,40.50
2022-10-28T03:26:10.038Z,38.50
2022-10-28T03:30:38.853Z,37.30
2022-10-28T03:32:27.175Z,38.20
2022-10-28T03:35:28.376Z,37.20
2022-10-28T03:38:26.665Z,39.80
2022-10-28T03:41:36.147Z,42.90
2022-10-28T03:47:39.581Z,38.20
2022-10-28T03:50:34.528Z,38.70
2022-10-28T03:57:02.906Z,39.10
2022-10-28T04:00:16.759Z,38.50
2022-10-28T04:03:12.288Z,36.10
2022-10-28T04:06:20.686Z,38.60
2022-10-28T04:09:46.200Z,38.20
2022-10-28T04:12:29.886Z,40.70
2022-10-28T04:15:34.553Z,38.30
2022-10-28T04:18:36.769Z,37.90
2022-10-28T04:21:15.663Z,43.50
2022-10-28T04:23:55.358Z,38.90
2022-10-28T04:26:43.785Z,41.20
2022-10-28T04:30:05.877Z,46.80
2022-10-28T04:33:27.851Z,42.80
2022-10-28T04:43:08.578Z,42.60
2022-10-28T04:46:09.172Z,42.30
2022-10-28T04:49:20.459Z,43.00
2022-10-28T04:59:20.195Z,40.40
2022-10-28T05:02:42.527Z,40.50
2022-10-28T05:05:39.641Z,45.30
2022-10-28T05:08:44.990Z,45.30
2022-10-28T05:15:19.862Z,45.20
2022-10-28T05:18:18.216Z,46.50
2022-10-28T05:21:48.828Z,49.90
2022-10-28T05:24:48.224Z,45.90
2022-10-28T05:30:42.964Z,51.50
2022-10-28T05:37:28.380Z,46.50
2022-10-28T05:40:12.624Z,47.80
2022-10-28T05:42:56.143Z,45.30
2022-10-28T05:45:59.860Z,45.10
2022-10-28T05:48:41.859Z,50.60
2022-10-28T05:51:43.038Z,44.70
2022-10-28T05:54:19.598Z,43.10
2022-10-28T05:57:07.426Z,47.50
2022-10-28T05:59:59.857Z,48.30
2022-10-28T06:02:47.187Z,52.20
2022-10-28T06:05:47.926Z,51.20
2022-10-28T06:08:50.486Z,56.00
2022-10-28T06:11:55.042Z,65.90
2022-10-28T06:15:51.690Z,56.50
2022-10-28T06:18:32.771Z,51.30
2022-10-28T06:21:20.184Z,47.00
2022-10-28T06:29:05.411Z,47.00
2022-10-28T06:31:46.469Z,46.40
2022-10-28T06:34:57.791Z,46.70
2022-10-28T06:43:42.101Z,48.00
2022-10-28T06:45:41.178Z,47.00
2022-10-28T06:48:54.924Z,46.50
2022-10-28T06:52:09.882Z,46.20
2022-10-28T06:55:22.709Z,46.90
2022-10-28T06:58:17.309Z,47.00
2022-10-28T07:02:41.461Z,46.90
2022-10-28T07:05:55.505Z,49.40
2022-10-28T07:13:06.864Z,44.40
2022-10-28T07:16:08.581Z,44.30
2022-10-28T07:23:10.966Z,45.70
2022-10-28T07:26:29.763Z,45.00
2022-10-28T07:30:02.291Z,46.80
2022-10-28T07:36:45.008Z,56.20
2022-10-28T07:44:10.859Z,50.80
2022-10-28T07:47:35.492Z,54.00
2022-10-28T07:51:58.784Z,51.20
2022-10-28T07:56:00.156Z,52.80
2022-10-28T07:59:29.913Z,57.10
2022-10-28T08:03:09.640Z,61.80
2022-10-28T08:06:57.904Z,62.40
2022-10-28T08:19:57.027Z,58.30
2022-10-28T08:22:43.305Z,52.00
2022-10-28T08:26:24.042Z,44.90
2022-10-28T09:44:12.702Z,21.70
2022-10-28T10:09:55.860Z,22.00
2022-10-28T10:13:17.118Z,18.40
2022-10-28T10:20:15.789Z,20.50
2022-10-28T10:25:18.466Z,21.20
2022-10-28T10:31:55.715Z,55.70
2022-10-28T10:36:00.051Z,17.50
2022-10-28T11:00:32.067Z,10.10
2022-10-28T11:03:28.066Z,14.10
2022-10-28T11:13:59.125Z,11.60
2022-10-28T11:17:18.496Z,11.70
2022-10-28T11:21:03.576Z,12.40
2022-10-28T11:25:11.729Z,12.00
2022-10-28T11:29:14.264Z,13.30
2022-10-28T11:33:44.803Z,12.80
2022-10-28T11:38:59.630Z,16.50
2022-10-28T11:43:29.896Z,11.20
2022-10-28T11:46:05.046Z,8.60
2022-10-28T11:50:06.149Z,11.00
2022-10-28T11:58:32.879Z,7.40
2022-10-28T12:02:00.506Z,12.60
2022-10-28T12:05:28.249Z,9.70
2022-10-28T12:14:17.721Z,11.30
2022-10-28T12:17:15.021Z,10.10
2022-10-28T12:20:13.720Z,10.40
2022-10-28T12:22:51.292Z,6.90
2022-10-28T12:25:33.893Z,10.00
2022-10-28T12:28:13.928Z,8.50
2022-10-28T12:30:42.722Z,9.20
2022-10-28T12:33:15.358Z,9.20
2022-10-28T12:35:53.765Z,10.30
2022-10-28T12:38:44.447Z,8.40
2022-10-28T12:41:27.037Z,7.10
2022-10-28T12:44:03.999Z,8.20
2022-10-28T12:49:52.707Z,10.60
2022-10-28T12:52:48.714Z,13.30
2022-10-28T12:55:30.330Z,7.60
2022-10-28T13:00:48.826Z,12.70
2022-10-28T13:03:16.485Z,13.00
2022-10-28T13:05:56.105Z,9.60
2022-10-28T13:08:48.366Z,15.00
2022-10-28T13:11:18.760Z,12.00
2022-10-28T13:14:04.582Z,21.60
2022-10-28T13:17:15.366Z,19.20
2022-10-28T13:20:07.795Z,13.20
2022-10-28T13:22:58.142Z,14.10
2022-10-28T13:25:37.953Z,9.70
2022-10-28T13:28:07.375Z,15.90
2022-10-28T13:30:35.091Z,15.30
2022-10-28T13:33:11.563Z,14.90
2022-10-28T13:35:39.084Z,14.60
2022-10-28T13:38:12.666Z,13.00
2022-10-28T13:40:39.942Z,14.50
2022-10-28T13:43:40.075Z,13.00
2022-10-28T13:46:07.464Z,9.00
2022-10-28T13:48:41.030Z,13.40
2022-10-28T13:51:08.346Z,13.70
2022-10-28T13:53:44.733Z,10.50
2022-10-28T13:56:34.336Z,13.90
2022-10-28T13:59:14.157Z,14.20
2022-10-28T14:01:41.602Z,10.90
2022-10-28T14:04:32.056Z,13.20
2022-10-28T14:07:05.186Z,14.00
2022-10-28T14:09:35.739Z,13.60
2022-10-28T14:12:30.260Z,13.60
2022-10-28T14:15:40.298Z,18.80
2022-10-28T14:18:37.413Z,16.30
2022-10-28T14:21:02.145Z,14.70
2022-10-28T14:23:30.399Z,17.10
2022-10-28T14:26:04.772Z,12.90
2022-10-28T14:28:32.185Z,12.40
2022-10-28T14:31:11.815Z,10.00
2022-10-28T14:33:42.403Z,12.90
2022-10-28T14:36:18.490Z,13.60
2022-10-28T14:39:19.863Z,11.40
2022-10-28T14:42:33.848Z,11.50
2022-10-28T14:45:48.075Z,15.20
2022-10-28T14:48:39.950Z,10.80
2022-10-28T14:51:14.262Z,12.40
2022-10-28T14:53:44.107Z,11.00
2022-10-28T14:56:21.197Z,15.00
2022-10-28T14:58:49.731Z,14.00
2022-10-28T15:01:17.248Z,17.00
2022-10-28T15:04:12.462Z,12.00
2022-10-28T15:06:46.324Z,12.80
2022-10-28T15:09:22.268Z,13.10
2022-10-28T15:12:10.678Z,18.40
2022-10-28T15:14:51.658Z,26.80
2022-10-28T15:17:20.959Z,21.40
2022-10-28T15:19:52.694Z,23.60
2022-10-28T15:22:28.771Z,22.40
2022-10-28T15:25:17.530Z,27.90
2022-10-28T15:27:49.772Z,19.80
2022-10-28T15:30:24.859Z,18.00
2022-10-28T15:33:14.191Z,16.60
2022-10-28T15:35:41.831Z,20.30
2022-10-28T15:38:27.502Z,19.10
2022-10-28T15:40:55.230Z,19.70
2022-10-28T15:43:29.035Z,18.60
2022-10-28T15:46:16.202Z,23.90
2022-10-28T15:48:43.675Z,32.90
2022-10-28T15:51:17.192Z,35.80
2022-10-28T15:53:56.203Z,36.50
2022-10-28T15:56:26.180Z,33.50
2022-10-28T15:59:24.305Z,32.10
2022-10-28T16:07:08.379Z,25.60
2022-10-28T16:09:43.680Z,21.10
2022-10-28T16:12:22.778Z,18.00
2022-10-28T16:14:56.803Z,20.50
2022-10-28T16:17:28.661Z,22.70
2022-10-28T16:20:19.037Z,17.70
2022-10-28T16:22:47.866Z,21.90
2022-10-28T16:25:21.767Z,22.10
2022-10-28T16:27:50.655Z,20.20
2022-10-28T16:30:18.190Z,22.80
2022-10-28T16:32:48.557Z,22.20
2022-10-28T16:35:18.329Z,23.30
2022-10-28T16:37:50.673Z,24.30
2022-10-28T16:43:19.308Z,27.80
2022-10-28T16:45:49.065Z,26.30
2022-10-28T16:48:18.979Z,26.50
2022-10-28T16:50:53.682Z,27.20
2022-10-28T16:53:21.818Z,29.50
2022-10-28T16:55:49.437Z,30.60
2022-10-28T16:58:18.761Z,28.60
2022-10-28T17:00:47.106Z,28.30
2022-10-28T17:03:15.040Z,35.20
2022-10-28T17:05:44.413Z,32.80
2022-10-28T17:08:12.068Z,31.50
2022-10-28T17:10:41.338Z,34.80
2022-10-28T17:13:12.911Z,34.60
2022-10-28T17:18:11.781Z,36.30
2022-10-28T17:20:39.194Z,26.60
2022-10-28T17:23:06.809Z,31.60
2022-10-28T17:25:34.336Z,25.40
2022-10-28T17:28:01.786Z,34.10
2022-10-28T17:30:30.482Z,25.30
2022-10-28T17:32:57.992Z,25.30
2022-10-28T17:35:27.291Z,24.20
2022-10-28T17:37:54.804Z,24.80
2022-10-28T17:40:22.638Z,27.40
2022-10-28T17:42:49.992Z,22.80
2022-10-28T17:45:21.008Z,23.50
2022-10-28T17:47:49.609Z,22.60
2022-10-28T17:50:17.457Z,23.70
2022-10-28T17:52:44.807Z,24.70
2022-10-28T17:55:12.224Z,20.80
2022-10-28T17:57:39.758Z,20.70
2022-10-28T18:00:08.723Z,21.60
2022-10-28T18:02:41.877Z,22.00
2022-10-28T18:05:09.401Z,29.70
2022-10-28T18:07:36.739Z,24.30
2022-10-28T18:10:04.939Z,24.10
2022-10-28T18:12:32.790Z,24.40
2022-10-28T18:15:00.192Z,27.10
2022-10-28T18:17:27.495Z,37.50
2022-10-28T18:19:57.168Z,37.90
2022-10-28T18:24:57.270Z,34.30
2022-10-28T18:27:24.624Z,30.70
2022-10-28T18:29:52.008Z,29.80
2022-10-28T18:32:19.915Z,30.00
2022-10-28T18:34:47.379Z,29.40
2022-10-28T18:37:14.924Z,31.90
2022-10-28T18:39:42.265Z,34.80
2022-10-28T18:42:12.226Z,38.40
2022-10-28T18:44:40.807Z,43.70
2022-10-28T18:47:08.276Z,42.60
2022-10-28T18:49:35.699Z,41.80
2022-10-28T18:52:03.358Z,34.90
2022-10-28T18:54:32.744Z,29.20
2022-10-28T18:57:00.112Z,31.80
2022-10-28T18:59:27.457Z,32.20
2022-10-28T19:01:56.077Z,37.80
2022-10-28T19:04:23.611Z,40.80
2022-10-28T19:06:51.172Z,36.90
2022-10-28T19:09:18.588Z,36.50
2022-10-28T19:11:45.947Z,35.00
2022-10-28T19:14:13.499Z,33.80
2022-10-28T19:16:40.904Z,29.50
2022-10-28T19:19:08.255Z,29.30
2022-10-28T19:21:35.685Z,25.90
2022-10-28T19:24:04.648Z,29.80
2022-10-28T19:26:33.235Z,23.80
2022-10-28T19:29:00.605Z,27.20
2022-10-28T19:31:28.033Z,20.50
2022-10-28T19:33:56.573Z,32.40
2022-10-28T19:36:27.317Z,26.20
2022-10-28T19:38:56.560Z,24.10
2022-10-28T19:41:29.310Z,21.50
2022-10-28T19:44:02.413Z,20.80
2022-10-28T19:46:34.361Z,22.40
2022-10-28T19:49:05.155Z,23.30
2022-10-28T19:51:36.972Z,42.70
2022-10-28T19:54:10.366Z,28.60
2022-10-28T19:56:38.879Z,26.20
2022-10-28T19:59:06.626Z,39.80
2022-10-28T20:01:37.806Z,69.90
2022-10-28T20:04:08.004Z,73.00
2022-10-28T20:06:39.545Z,74.90
2022-10-28T20:09:07.398Z,72.60
2022-10-28T20:11:37.753Z,59.60
2022-10-28T20:14:10.891Z,58.20
2022-10-28T20:16:41.898Z,54.40
2022-10-28T20:19:09.906Z,43.80
2022-10-28T20:21:38.530Z,33.90
2022-10-28T20:24:08.311Z,30.70
2022-10-28T20:26:38.280Z,31.80
2022-10-28T20:29:08.041Z,30.30
2022-10-28T20:31:37.895Z,32.90
2022-10-28T20:34:06.692Z,27.80
2022-10-28T20:36:35.354Z,28.30
2022-10-28T20:39:11.390Z,28.10
2022-10-28T20:41:40.298Z,26.10
2022-10-28T20:44:08.153Z,23.30
2022-10-28T20:46:37.384Z,25.10
2022-10-28T20:49:09.228Z,24.30
2022-10-28T20:51:36.761Z,24.70
2022-10-28T20:54:04.670Z,26.00
2022-10-28T20:56:36.652Z,26.30
2022-10-28T20:59:05.530Z,29.60
2022-10-28T21:01:36.748Z,26.10
2022-10-28T21:04:09.150Z,23.00
2022-10-28T21:06:39.752Z,24.10
2022-10-28T21:09:08.406Z,22.10
2022-10-28T21:11:36.001Z,20.90
2022-10-28T21:14:03.434Z,24.90
2022-10-28T21:16:31.299Z,22.30
2022-10-28T21:18:59.124Z,22.10
2022-10-28T21:21:28.754Z,23.20
2022-10-28T21:23:58.863Z,27.50
2022-10-28T21:26:26.743Z,24.90
2022-10-28T21:28:55.929Z,28.80
2022-10-28T21:31:23.838Z,29.40
2022-10-28T21:33:51.209Z,22.00
2022-10-28T21:36:20.754Z,22.70
2022-10-28T21:38:51.812Z,23.30
2022-10-28T21:41:20.343Z,22.10
2022-10-28T21:43:50.518Z,26.50
2022-10-28T21:46:20.328Z,27.80
2022-10-28T21:48:47.789Z,24.70
2022-10-28T21:51:16.966Z,21.70
2022-10-28T21:53:44.786Z,23.90
2022-10-28T21:56:19.833Z,26.60
2022-10-28T21:58:49.512Z,31.40
2022-10-28T22:01:22.392Z,31.00
2022-10-28T22:03:51.743Z,36.90
2022-10-28T22:06:19.266Z,37.00
2022-10-28T22:08:47.184Z,38.70
2022-10-28T22:11:20.732Z,37.90
2022-10-28T22:13:58.684Z,38.20
2022-10-28T22:16:29.231Z,36.80
2022-10-28T22:19:04.918Z,39.20
2022-10-28T22:21:39.081Z,40.60
2022-10-28T22:24:07.224Z,36.90
2022-10-28T22:26:34.593Z,35.80
2022-10-28T22:29:02.165Z,37.10
2022-10-28T22:31:31.917Z,34.50
2022-10-28T22:34:00.135Z,37.40
2022-10-28T22:36:29.587Z,37.90
2022-10-28T22:38:57.632Z,39.50
2022-10-28T22:41:29.927Z,39.30
2022-10-28T22:44:00.328Z,35.40
2022-10-28T22:46:32.794Z,36.20
2022-10-28T22:49:00.152Z,36.90
2022-10-28T22:51:27.546Z,40.90
2022-10-28T22:53:55.046Z,57.10
2022-10-28T22:56:25.357Z,62.50
2022-10-28T22:58:59.343Z,51.60
2022-10-28T23:01:28.681Z,48.70
2022-10-28T23:03:56.674Z,41.40
2022-10-28T23:06:26.606Z,33.10
2022-10-28T23:08:54.691Z,27.30
2022-10-28T23:11:22.957Z,31.70
2022-10-28T23:13:52.689Z,26.60
2022-10-28T23:16:21.939Z,23.80
2022-10-28T23:18:49.745Z,21.50
2022-10-28T23:21:25.565Z,20.40
2022-10-28T23:24:00.018Z,19.90
2022-10-28T23:26:29.495Z,25.90
2022-10-28T23:28:59.471Z,21.60
2022-10-28T23:31:27.955Z,33.90
2022-10-28T23:33:56.298Z,45.60
2022-10-28T23:36:23.842Z,62.40
2022-10-28T23:38:51.920Z,52.80
2022-10-28T23:41:20.397Z,65.70
2022-10-28T23:43:48.798Z,68.90
2022-10-28T23:46:17.108Z,67.30
2022-10-28T23:48:44.445Z,79.80
2022-10-28T23:51:11.888Z,81.10
2022-10-28T23:53:39.316Z,80.50
2022-10-28T23:56:07.025Z,76.60
2022-10-28T23:58:34.380Z,69.20
